sensor_id;sensor_type;location;lat;lon;timestamp;P1;durP1;ratioP1;P2;durP2;ratioP2
2656;SDS011;1338;48.176;11.792;2023-03-01T00:01:17;19.40;;;16.30;;
2656;SDS011;1338;48.176;11.792;2023-03-01T00:03:46;21.10;;;15.70;;
2656;SDS011;1338;48.176;11.792;2023-03-01T00:06:16;22.77;;;17.10;;
2656;SDS011;1338;48.176;11.792;2023-03-01T00:08:44;18.00;;;14.50;;
2656;SDS011;1338;48.176;11.792;2023-03-01T00:11:14;20.80;;;15.40;;
2656;SDS011;1338;48.176;11.792;2023-03-01T00:13:44;20.40;;;15.77;;
2656;SDS011;1338;48.176;11.792;2023-03-01T00:16:14;18.60;;;15.03;;
2656;SDS011;1338;48.176;11.792;2023-03-01T00:18:43;19.70;;;15.67;;
2656;SDS011;1338;48.176;11.792;2023-03-01T00:21:11;20.17;;;16.13;;
2656;SDS011;1338;48.176;11.792;2023-03-01T00:23:41;19.80;;;16.67;;
2656;SDS011;1338;48.176;11.792;2023-03-01T00:26:10;18.90;;;15.30;;
2656;SDS011;1338;48.176;11.792;2023-03-01T00:28:40;21.20;;;15.30;;
2656;SDS011;1338;48.176;11.792;2023-03-01T00:31:10;19.90;;;16.10;;
2656;SDS011;1338;48.176;11.792;2023-03-01T00:33:39;19.80;;;14.97;;
2656;SDS011;1338;48.176;11.792;2023-03-01T00:36:08;17.03;;;14.00;;
2656;SDS011;1338;48.176;11.792;2023-03-01T00:38:37;20.23;;;14.90;;
2656;SDS011;1338;48.176;11.792;2023-03-01T00:41:08;19.60;;;14.87;;
2656;SDS011;1338;48.176;11.792;2023-03-01T00:43:37;19.97;;;15.70;;
2656;SDS011;1338;48.176;11.792;2023-03-01T00:46:07;16.60;;;12.97;;
2656;SDS011;1338;48.176;11.792;2023-03-01T00:48:37;20.70;;;15.37;;
2656;SDS011;1338;48.176;11.792;2023-03-01T00:51:06;20.30;;;15.97;;
2656;SDS011;1338;48.176;11.792;2023-03-01T00:53:35;19.93;;;16.50;;
2656;SDS011;1338;48.176;11.792;2023-03-01T00:56:03;20.50;;;15.77;;
2656;SDS011;1338;48.176;11.792;2023-03-01T00:58:34;17.37;;;15.10;;
2656;SDS011;1338;48.176;11.792;2023-03-01T01:01:07;21.10;;;15.70;;
2656;SDS011;1338;48.176;11.792;2023-03-01T01:03:45;20.27;;;16.13;;
2656;SDS011;1338;48.176;11.792;2023-03-01T01:06:18;18.53;;;14.10;;
2656;SDS011;1338;48.176;11.792;2023-03-01T01:08:48;17.83;;;14.80;;
2656;SDS011;1338;48.176;11.792;2023-03-01T01:11:17;22.23;;;14.63;;
2656;SDS011;1338;48.176;11.792;2023-03-01T01:13:47;20.37;;;16.20;;
2656;SDS011;1338;48.176;11.792;2023-03-01T01:16:15;20.53;;;14.77;;
2656;SDS011;1338;48.176;11.792;2023-03-01T01:18:45;20.20;;;15.23;;
2656;SDS011;1338;48.176;11.792;2023-03-01T01:21:15;21.83;;;15.70;;
2656;SDS011;1338;48.176;11.792;2023-03-01T01:23:44;21.20;;;14.57;;
2656;SDS011;1338;48.176;11.792;2023-03-01T01:26:14;23.57;;;15.63;;
2656;SDS011;1338;48.176;11.792;2023-03-01T01:28:44;21.20;;;15.83;;
2656;SDS011;1338;48.176;11.792;2023-03-01T01:31:14;19.43;;;15.23;;
2656;SDS011;1338;48.176;11.792;2023-03-01T01:33:43;17.60;;;15.60;;
2656;SDS011;1338;48.176;11.792;2023-03-01T01:36:11;17.20;;;13.90;;
2656;SDS011;1338;48.176;11.792;2023-03-01T01:38:40;20.67;;;14.50;;
2656;SDS011;1338;48.176;11.792;2023-03-01T01:41:09;18.17;;;14.87;;
2656;SDS011;1338;48.176;11.792;2023-03-01T01:43:39;21.70;;;16.23;;
2656;SDS011;1338;48.176;11.792;2023-03-01T01:46:12;22.47;;;15.87;;
2656;SDS011;1338;48.176;11.792;2023-03-01T01:48:50;17.77;;;14.20;;
2656;SDS011;1338;48.176;11.792;2023-03-01T01:51:22;19.83;;;15.17;;
2656;SDS011;1338;48.176;11.792;2023-03-01T01:53:55;21.90;;;15.20;;
2656;SDS011;1338;48.176;11.792;2023-03-01T01:56:27;18.17;;;14.90;;
2656;SDS011;1338;48.176;11.792;2023-03-01T01:58:57;21.27;;;17.70;;
2656;SDS011;1338;48.176;11.792;2023-03-01T02:01:27;19.73;;;16.30;;
2656;SDS011;1338;48.176;11.792;2023-03-01T02:03:55;20.20;;;14.80;;
2656;SDS011;1338;48.176;11.792;2023-03-01T02:06:26;20.00;;;15.23;;
2656;SDS011;1338;48.176;11.792;2023-03-01T02:08:57;23.07;;;16.87;;
2656;SDS011;1338;48.176;11.792;2023-03-01T02:11:29;20.97;;;16.53;;
2656;SDS011;1338;48.176;11.792;2023-03-01T02:13:58;20.60;;;16.57;;
2656;SDS011;1338;48.176;11.792;2023-03-01T02:16:28;19.37;;;16.13;;
2656;SDS011;1338;48.176;11.792;2023-03-01T02:18:57;18.93;;;14.67;;
2656;SDS011;1338;48.176;11.792;2023-03-01T02:21:30;18.80;;;15.50;;
2656;SDS011;1338;48.176;11.792;2023-03-01T02:24:07;20.93;;;16.90;;
2656;SDS011;1338;48.176;11.792;2023-03-01T02:26:48;22.80;;;16.03;;
2656;SDS011;1338;48.176;11.792;2023-03-01T02:29:21;21.90;;;16.50;;
2656;SDS011;1338;48.176;11.792;2023-03-01T02:31:51;20.37;;;14.60;;
2656;SDS011;1338;48.176;11.792;2023-03-01T02:34:24;17.90;;;15.83;;
2656;SDS011;1338;48.176;11.792;2023-03-01T02:36:55;22.17;;;16.07;;
2656;SDS011;1338;48.176;11.792;2023-03-01T02:39:25;22.67;;;17.17;;
2656;SDS011;1338;48.176;11.792;2023-03-01T02:41:58;19.57;;;15.10;;
2656;SDS011;1338;48.176;11.792;2023-03-01T02:44:28;21.60;;;16.60;;
2656;SDS011;1338;48.176;11.792;2023-03-01T02:46:56;19.80;;;16.07;;
2656;SDS011;1338;48.176;11.792;2023-03-01T02:49:29;22.97;;;16.37;;
2656;SDS011;1338;48.176;11.792;2023-03-01T02:52:08;17.30;;;13.40;;
2656;SDS011;1338;48.176;11.792;2023-03-01T02:54:49;21.97;;;16.00;;
2656;SDS011;1338;48.176;11.792;2023-03-01T02:57:22;21.97;;;16.00;;
2656;SDS011;1338;48.176;11.792;2023-03-01T02:59:55;20.60;;;14.77;;
2656;SDS011;1338;48.176;11.792;2023-03-01T03:02:28;20.47;;;15.70;;
2656;SDS011;1338;48.176;11.792;2023-03-01T03:05:10;20.73;;;16.87;;
2656;SDS011;1338;48.176;11.792;2023-03-01T03:07:40;21.07;;;16.07;;
2656;SDS011;1338;48.176;11.792;2023-03-01T03:10:11;19.83;;;15.93;;
2656;SDS011;1338;48.176;11.792;2023-03-01T03:12:41;18.93;;;15.60;;
2656;SDS011;1338;48.176;11.792;2023-03-01T03:15:10;23.80;;;16.93;;
2656;SDS011;1338;48.176;11.792;2023-03-01T03:17:40;21.60;;;16.20;;
2656;SDS011;1338;48.176;11.792;2023-03-01T03:20:12;19.20;;;15.73;;
2656;SDS011;1338;48.176;11.792;2023-03-01T03:22:45;22.20;;;16.63;;
2656;SDS011;1338;48.176;11.792;2023-03-01T03:25:15;22.10;;;16.77;;
2656;SDS011;1338;48.176;11.792;2023-03-01T03:27:45;22.40;;;16.57;;
2656;SDS011;1338;48.176;11.792;2023-03-01T03:30:16;22.00;;;15.97;;
2656;SDS011;1338;48.176;11.792;2023-03-01T03:32:47;22.97;;;16.17;;
2656;SDS011;1338;48.176;11.792;2023-03-01T03:35:19;20.60;;;16.10;;
2656;SDS011;1338;48.176;11.792;2023-03-01T03:37:48;22.30;;;16.70;;
2656;SDS011;1338;48.176;11.792;2023-03-01T03:40:33;22.17;;;18.20;;
2656;SDS011;1338;48.176;11.792;2023-03-01T03:43:03;20.60;;;16.77;;
2656;SDS011;1338;48.176;11.792;2023-03-01T03:45:34;17.87;;;15.50;;
2656;SDS011;1338;48.176;11.792;2023-03-01T03:48:03;21.53;;;15.47;;
2656;SDS011;1338;48.176;11.792;2023-03-01T03:50:33;21.53;;;15.50;;
2656;SDS011;1338;48.176;11.792;2023-03-01T03:53:03;18.60;;;16.10;;
2656;SDS011;1338;48.176;11.792;2023-03-01T03:55:32;23.07;;;17.20;;
2656;SDS011;1338;48.176;11.792;2023-03-01T03:58:01;19.87;;;15.50;;
2656;SDS011;1338;48.176;11.792;2023-03-01T04:00:35;20.27;;;15.83;;
2656;SDS011;1338;48.176;11.792;2023-03-01T04:03:04;21.13;;;16.40;;
2656;SDS011;1338;48.176;11.792;2023-03-01T04:05:32;20.13;;;15.00;;
2656;SDS011;1338;48.176;11.792;2023-03-01T04:08:01;21.77;;;15.00;;
2656;SDS011;1338;48.176;11.792;2023-03-01T04:10:30;20.37;;;15.63;;
2656;SDS011;1338;48.176;11.792;2023-03-01T04:12:59;16.60;;;14.07;;
2656;SDS011;1338;48.176;11.792;2023-03-01T04:15:27;24.10;;;16.93;;
2656;SDS011;1338;48.176;11.792;2023-03-01T04:17:57;24.13;;;16.20;;
2656;SDS011;1338;48.176;11.792;2023-03-01T04:20:27;21.87;;;15.43;;
2656;SDS011;1338;48.176;11.792;2023-03-01T04:22:57;18.00;;;13.70;;
2656;SDS011;1338;48.176;11.792;2023-03-01T04:25:26;18.13;;;15.10;;
2656;SDS011;1338;48.176;11.792;2023-03-01T04:27:56;20.70;;;15.87;;
2656;SDS011;1338;48.176;11.792;2023-03-01T04:30:24;21.57;;;16.27;;
2656;SDS011;1338;48.176;11.792;2023-03-01T04:32:52;19.73;;;15.67;;
2656;SDS011;1338;48.176;11.792;2023-03-01T04:35:22;21.50;;;14.97;;
2656;SDS011;1338;48.176;11.792;2023-03-01T04:37:50;20.43;;;15.80;;
2656;SDS011;1338;48.176;11.792;2023-03-01T04:40:18;21.73;;;17.40;;
2656;SDS011;1338;48.176;11.792;2023-03-01T04:42:47;23.57;;;15.30;;
2656;SDS011;1338;48.176;11.792;2023-03-01T04:45:15;19.40;;;14.90;;
2656;SDS011;1338;48.176;11.792;2023-03-01T04:47:43;22.17;;;15.50;;
2656;SDS011;1338;48.176;11.792;2023-03-01T04:50:14;16.93;;;13.10;;
2656;SDS011;1338;48.176;11.792;2023-03-01T04:52:47;21.23;;;16.80;;
2656;SDS011;1338;48.176;11.792;2023-03-01T04:55:16;20.67;;;15.57;;
2656;SDS011;1338;48.176;11.792;2023-03-01T04:57:44;20.83;;;15.60;;
2656;SDS011;1338;48.176;11.792;2023-03-01T05:00:13;18.43;;;14.70;;
2656;SDS011;1338;48.176;11.792;2023-03-01T05:02:48;24.60;;;15.97;;
2656;SDS011;1338;48.176;11.792;2023-03-01T05:05:20;20.87;;;16.10;;
2656;SDS011;1338;48.176;11.792;2023-03-01T05:07:54;21.47;;;16.70;;
2656;SDS011;1338;48.176;11.792;2023-03-01T05:10:23;21.37;;;15.90;;
2656;SDS011;1338;48.176;11.792;2023-03-01T05:12:52;21.20;;;15.33;;
2656;SDS011;1338;48.176;11.792;2023-03-01T05:15:20;23.90;;;17.27;;
2656;SDS011;1338;48.176;11.792;2023-03-01T05:17:52;22.13;;;14.60;;
2656;SDS011;1338;48.176;11.792;2023-03-01T05:20:21;20.70;;;16.20;;
2656;SDS011;1338;48.176;11.792;2023-03-01T05:22:50;21.07;;;17.77;;
2656;SDS011;1338;48.176;11.792;2023-03-01T05:25:20;18.20;;;14.03;;
2656;SDS011;1338;48.176;11.792;2023-03-01T05:27:48;20.73;;;16.10;;
2656;SDS011;1338;48.176;11.792;2023-03-01T05:30:17;18.57;;;13.87;;
2656;SDS011;1338;48.176;11.792;2023-03-01T05:32:46;21.67;;;15.20;;
2656;SDS011;1338;48.176;11.792;2023-03-01T05:35:16;23.37;;;15.43;;
2656;SDS011;1338;48.176;11.792;2023-03-01T05:37:46;22.67;;;16.17;;
2656;SDS011;1338;48.176;11.792;2023-03-01T05:40:15;21.83;;;16.23;;
2656;SDS011;1338;48.176;11.792;2023-03-01T05:42:46;19.80;;;14.87;;
2656;SDS011;1338;48.176;11.792;2023-03-01T05:45:16;19.40;;;14.73;;
2656;SDS011;1338;48.176;11.792;2023-03-01T05:47:46;19.17;;;16.17;;
2656;SDS011;1338;48.176;11.792;2023-03-01T05:50:16;19.87;;;14.50;;
2656;SDS011;1338;48.176;11.792;2023-03-01T05:52:46;22.43;;;17.70;;
2656;SDS011;1338;48.176;11.792;2023-03-01T05:55:16;20.40;;;15.37;;
2656;SDS011;1338;48.176;11.792;2023-03-01T05:57:46;21.50;;;16.60;;
2656;SDS011;1338;48.176;11.792;2023-03-01T06:00:17;21.63;;;15.83;;
2656;SDS011;1338;48.176;11.792;2023-03-01T06:02:48;21.30;;;14.00;;
2656;SDS011;1338;48.176;11.792;2023-03-01T06:05:16;19.33;;;14.70;;
2656;SDS011;1338;48.176;11.792;2023-03-01T06:07:45;17.90;;;13.60;;
2656;SDS011;1338;48.176;11.792;2023-03-01T06:10:13;21.00;;;16.33;;
2656;SDS011;1338;48.176;11.792;2023-03-01T06:12:42;21.00;;;16.27;;
2656;SDS011;1338;48.176;11.792;2023-03-01T06:15:13;22.20;;;14.40;;
2656;SDS011;1338;48.176;11.792;2023-03-01T06:17:43;23.13;;;15.80;;
2656;SDS011;1338;48.176;11.792;2023-03-01T06:20:13;23.10;;;15.60;;
2656;SDS011;1338;48.176;11.792;2023-03-01T06:22:44;23.70;;;16.00;;
2656;SDS011;1338;48.176;11.792;2023-03-01T06:25:16;20.50;;;14.47;;
2656;SDS011;1338;48.176;11.792;2023-03-01T06:27:47;19.40;;;15.47;;
2656;SDS011;1338;48.176;11.792;2023-03-01T06:30:18;20.13;;;15.50;;
2656;SDS011;1338;48.176;11.792;2023-03-01T06:32:47;21.37;;;15.33;;
2656;SDS011;1338;48.176;11.792;2023-03-01T06:35:16;24.70;;;17.30;;
2656;SDS011;1338;48.176;11.792;2023-03-01T06:37:46;21.63;;;15.20;;
2656;SDS011;1338;48.176;11.792;2023-03-01T06:40:14;20.77;;;15.20;;
2656;SDS011;1338;48.176;11.792;2023-03-01T06:42:47;20.50;;;14.07;;
2656;SDS011;1338;48.176;11.792;2023-03-01T06:45:19;22.90;;;16.83;;
2656;SDS011;1338;48.176;11.792;2023-03-01T06:47:48;20.47;;;14.93;;
2656;SDS011;1338;48.176;11.792;2023-03-01T06:50:19;22.27;;;16.60;;
2656;SDS011;1338;48.176;11.792;2023-03-01T06:52:47;23.37;;;18.10;;
2656;SDS011;1338;48.176;11.792;2023-03-01T06:55:22;21.33;;;14.73;;
2656;SDS011;1338;48.176;11.792;2023-03-01T06:57:53;20.27;;;15.30;;
2656;SDS011;1338;48.176;11.792;2023-03-01T07:00:24;22.07;;;16.80;;
2656;SDS011;1338;48.176;11.792;2023-03-01T07:02:53;23.07;;;14.30;;
2656;SDS011;1338;48.176;11.792;2023-03-01T07:05:22;23.83;;;17.03;;
2656;SDS011;1338;48.176;11.792;2023-03-01T07:07:50;25.17;;;18.07;;
2656;SDS011;1338;48.176;11.792;2023-03-01T07:10:18;21.93;;;16.47;;
2656;SDS011;1338;48.176;11.792;2023-03-01T07:12:47;23.60;;;16.27;;
2656;SDS011;1338;48.176;11.792;2023-03-01T07:15:15;19.33;;;15.27;;
2656;SDS011;1338;48.176;11.792;2023-03-01T07:17:45;22.10;;;16.30;;
2656;SDS011;1338;48.176;11.792;2023-03-01T07:20:18;25.30;;;18.17;;
2656;SDS011;1338;48.176;11.792;2023-03-01T07:22:52;25.60;;;15.77;;
2656;SDS011;1338;48.176;11.792;2023-03-01T07:25:20;22.27;;;16.70;;
2656;SDS011;1338;48.176;11.792;2023-03-01T07:27:49;24.10;;;16.60;;
2656;SDS011;1338;48.176;11.792;2023-03-01T07:30:19;19.20;;;12.70;;
2656;SDS011;1338;48.176;11.792;2023-03-01T07:32:48;23.53;;;16.17;;
2656;SDS011;1338;48.176;11.792;2023-03-01T07:35:20;27.57;;;18.30;;
2656;SDS011;1338;48.176;11.792;2023-03-01T07:37:49;23.50;;;17.03;;
2656;SDS011;1338;48.176;11.792;2023-03-01T07:40:18;21.60;;;15.17;;
2656;SDS011;1338;48.176;11.792;2023-03-01T07:42:46;21.27;;;14.60;;
2656;SDS011;1338;48.176;11.792;2023-03-01T07:45:15;22.47;;;14.77;;
2656;SDS011;1338;48.176;11.792;2023-03-01T07:47:43;22.00;;;16.57;;
2656;SDS011;1338;48.176;11.792;2023-03-01T07:50:13;22.97;;;16.90;;
2656;SDS011;1338;48.176;11.792;2023-03-01T07:52:41;25.93;;;18.23;;
2656;SDS011;1338;48.176;11.792;2023-03-01T07:55:12;22.23;;;16.03;;
2656;SDS011;1338;48.176;11.792;2023-03-01T07:57:42;24.30;;;16.47;;
2656;SDS011;1338;48.176;11.792;2023-03-01T08:00:11;23.43;;;16.03;;
2656;SDS011;1338;48.176;11.792;2023-03-01T08:02:40;22.70;;;16.83;;
2656;SDS011;1338;48.176;11.792;2023-03-01T08:05:09;24.67;;;16.70;;
2656;SDS011;1338;48.176;11.792;2023-03-01T08:07:39;21.73;;;16.90;;
2656;SDS011;1338;48.176;11.792;2023-03-01T08:10:07;25.23;;;16.33;;
2656;SDS011;1338;48.176;11.792;2023-03-01T08:12:37;22.70;;;17.50;;
2656;SDS011;1338;48.176;11.792;2023-03-01T08:15:07;23.50;;;17.30;;
2656;SDS011;1338;48.176;11.792;2023-03-01T08:17:36;26.13;;;17.07;;
2656;SDS011;1338;48.176;11.792;2023-03-01T08:20:04;24.20;;;17.33;;
2656;SDS011;1338;48.176;11.792;2023-03-01T08:22:33;24.33;;;16.37;;
2656;SDS011;1338;48.176;11.792;2023-03-01T08:25:03;23.47;;;17.50;;
2656;SDS011;1338;48.176;11.792;2023-03-01T08:27:31;18.63;;;13.57;;
2656;SDS011;1338;48.176;11.792;2023-03-01T08:29:59;25.03;;;16.70;;
2656;SDS011;1338;48.176;11.792;2023-03-01T08:32:28;26.50;;;17.50;;
2656;SDS011;1338;48.176;11.792;2023-03-01T08:34:56;23.40;;;16.30;;
2656;SDS011;1338;48.176;11.792;2023-03-01T08:37:25;24.40;;;18.67;;
2656;SDS011;1338;48.176;11.792;2023-03-01T08:39:54;30.00;;;18.60;;
2656;SDS011;1338;48.176;11.792;2023-03-01T08:42:24;22.30;;;17.00;;
2656;SDS011;1338;48.176;11.792;2023-03-01T08:44:52;23.43;;;16.73;;
2656;SDS011;1338;48.176;11.792;2023-03-01T08:47:20;21.97;;;14.23;;
2656;SDS011;1338;48.176;11.792;2023-03-01T08:49:49;23.10;;;16.30;;
2656;SDS011;1338;48.176;11.792;2023-03-01T08:52:17;24.47;;;18.10;;
2656;SDS011;1338;48.176;11.792;2023-03-01T08:54:47;22.27;;;17.20;;
2656;SDS011;1338;48.176;11.792;2023-03-01T08:57:15;21.03;;;14.37;;
2656;SDS011;1338;48.176;11.792;2023-03-01T08:59:45;23.57;;;17.70;;
2656;SDS011;1338;48.176;11.792;2023-03-01T09:02:13;25.87;;;17.73;;
2656;SDS011;1338;48.176;11.792;2023-03-01T09:04:43;23.20;;;17.30;;
2656;SDS011;1338;48.176;11.792;2023-03-01T09:07:12;21.20;;;16.00;;
2656;SDS011;1338;48.176;11.792;2023-03-01T09:09:40;21.50;;;16.27;;
2656;SDS011;1338;48.176;11.792;2023-03-01T09:12:09;20.23;;;13.70;;
2656;SDS011;1338;48.176;11.792;2023-03-01T09:14:37;24.90;;;15.17;;
2656;SDS011;1338;48.176;11.792;2023-03-01T09:17:09;24.03;;;16.90;;
2656;SDS011;1338;48.176;11.792;2023-03-01T09:19:37;27.17;;;17.70;;
2656;SDS011;1338;48.176;11.792;2023-03-01T09:22:05;24.47;;;17.10;;
2656;SDS011;1338;48.176;11.792;2023-03-01T09:24:33;25.47;;;16.53;;
2656;SDS011;1338;48.176;11.792;2023-03-01T09:27:02;25.17;;;17.83;;
2656;SDS011;1338;48.176;11.792;2023-03-01T09:29:31;23.77;;;17.40;;
2656;SDS011;1338;48.176;11.792;2023-03-01T09:31:59;28.43;;;18.57;;
2656;SDS011;1338;48.176;11.792;2023-03-01T09:34:29;24.60;;;16.50;;
2656;SDS011;1338;48.176;11.792;2023-03-01T09:36:58;26.60;;;20.03;;
2656;SDS011;1338;48.176;11.792;2023-03-01T09:39:28;26.30;;;18.13;;
2656;SDS011;1338;48.176;11.792;2023-03-01T09:41:57;23.70;;;17.70;;
2656;SDS011;1338;48.176;11.792;2023-03-01T09:44:32;24.93;;;18.40;;
2656;SDS011;1338;48.176;11.792;2023-03-01T09:47:04;27.60;;;18.90;;
2656;SDS011;1338;48.176;11.792;2023-03-01T09:49:39;24.80;;;16.97;;
2656;SDS011;1338;48.176;11.792;2023-03-01T09:52:19;24.57;;;15.30;;
2656;SDS011;1338;48.176;11.792;2023-03-01T09:54:53;26.07;;;18.93;;
2656;SDS011;1338;48.176;11.792;2023-03-01T09:57:28;25.50;;;18.17;;
2656;SDS011;1338;48.176;11.792;2023-03-01T10:00:07;27.53;;;18.57;;
2656;SDS011;1338;48.176;11.792;2023-03-01T10:02:43;20.70;;;12.80;;
2656;SDS011;1338;48.176;11.792;2023-03-01T10:05:25;26.57;;;18.30;;
2656;SDS011;1338;48.176;11.792;2023-03-01T10:08:06;28.47;;;22.13;;
2656;SDS011;1338;48.176;11.792;2023-03-01T10:10:51;26.07;;;21.70;;
2656;SDS011;1338;48.176;11.792;2023-03-01T10:13:21;26.43;;;18.20;;
2656;SDS011;1338;48.176;11.792;2023-03-01T10:15:55;27.20;;;19.20;;
2656;SDS011;1338;48.176;11.792;2023-03-01T10:18:26;28.20;;;19.97;;
2656;SDS011;1338;48.176;11.792;2023-03-01T10:20:59;25.43;;;18.27;;
2656;SDS011;1338;48.176;11.792;2023-03-01T10:23:30;23.70;;;19.07;;
2656;SDS011;1338;48.176;11.792;2023-03-01T10:26:08;24.30;;;18.20;;
2656;SDS011;1338;48.176;11.792;2023-03-01T10:28:50;26.43;;;19.10;;
2656;SDS011;1338;48.176;11.792;2023-03-01T10:31:23;27.70;;;20.57;;
2656;SDS011;1338;48.176;11.792;2023-03-01T10:33:55;25.20;;;17.90;;
2656;SDS011;1338;48.176;11.792;2023-03-01T10:36:26;27.10;;;19.70;;
2656;SDS011;1338;48.176;11.792;2023-03-01T10:38:55;22.93;;;18.73;;
2656;SDS011;1338;48.176;11.792;2023-03-01T10:41:25;25.73;;;20.50;;
2656;SDS011;1338;48.176;11.792;2023-03-01T10:43:55;27.60;;;20.53;;
2656;SDS011;1338;48.176;11.792;2023-03-01T10:46:26;27.90;;;20.10;;
2656;SDS011;1338;48.176;11.792;2023-03-01T10:49:07;21.97;;;17.70;;
2656;SDS011;1338;48.176;11.792;2023-03-01T10:51:44;26.93;;;19.10;;
2656;SDS011;1338;48.176;11.792;2023-03-01T10:54:18;24.47;;;17.90;;
2656;SDS011;1338;48.176;11.792;2023-03-01T10:56:49;28.23;;;19.63;;
2656;SDS011;1338;48.176;11.792;2023-03-01T10:59:22;26.77;;;20.03;;
2656;SDS011;1338;48.176;11.792;2023-03-01T11:02:01;28.87;;;20.27;;
2656;SDS011;1338;48.176;11.792;2023-03-01T11:05:00;28.37;;;19.87;;
2656;SDS011;1338;48.176;11.792;2023-03-01T11:07:32;28.43;;;19.97;;
2656;SDS011;1338;48.176;11.792;2023-03-01T11:10:16;27.70;;;20.37;;
2656;SDS011;1338;48.176;11.792;2023-03-01T11:12:45;26.40;;;19.60;;
2656;SDS011;1338;48.176;11.792;2023-03-01T11:15:24;20.70;;;16.20;;
2656;SDS011;1338;48.176;11.792;2023-03-01T11:17:55;23.80;;;16.93;;
2656;SDS011;1338;48.176;11.792;2023-03-01T11:20:39;24.20;;;18.07;;
2656;SDS011;1338;48.176;11.792;2023-03-01T11:23:10;29.47;;;20.40;;
2656;SDS011;1338;48.176;11.792;2023-03-01T11:25:40;24.37;;;18.50;;
2656;SDS011;1338;48.176;11.792;2023-03-01T11:28:12;24.40;;;17.93;;
2656;SDS011;1338;48.176;11.792;2023-03-01T11:30:46;25.63;;;19.60;;
2656;SDS011;1338;48.176;11.792;2023-03-01T11:33:35;29.17;;;19.30;;
2656;SDS011;1338;48.176;11.792;2023-03-01T11:36:11;24.50;;;17.87;;
2656;SDS011;1338;48.176;11.792;2023-03-01T11:38:45;29.40;;;19.87;;
2656;SDS011;1338;48.176;11.792;2023-03-01T11:41:15;21.53;;;17.47;;
2656;SDS011;1338;48.176;11.792;2023-03-01T11:43:47;25.30;;;18.60;;
2656;SDS011;1338;48.176;11.792;2023-03-01T11:46:27;27.00;;;18.77;;
2656;SDS011;1338;48.176;11.792;2023-03-01T11:49:12;27.73;;;20.40;;
2656;SDS011;1338;48.176;11.792;2023-03-01T11:52:20;31.30;;;21.53;;
2656;SDS011;1338;48.176;11.792;2023-03-01T11:55:12;27.43;;;20.30;;
2656;SDS011;1338;48.176;11.792;2023-03-01T11:57:57;28.33;;;19.57;;
2656;SDS011;1338;48.176;11.792;2023-03-01T12:03:51;27.20;;;20.97;;
2656;SDS011;1338;48.176;11.792;2023-03-01T12:06:33;21.80;;;16.37;;
2656;SDS011;1338;48.176;11.792;2023-03-01T12:09:14;26.37;;;18.50;;
2656;SDS011;1338;48.176;11.792;2023-03-01T12:11:56;26.23;;;19.70;;
2656;SDS011;1338;48.176;11.792;2023-03-01T12:14:46;26.47;;;21.33;;
2656;SDS011;1338;48.176;11.792;2023-03-01T12:17:32;28.80;;;19.13;;
2656;SDS011;1338;48.176;11.792;2023-03-01T12:20:17;23.50;;;18.77;;
2656;SDS011;1338;48.176;11.792;2023-03-01T12:22:57;27.63;;;19.63;;
2656;SDS011;1338;48.176;11.792;2023-03-01T12:25:46;27.20;;;20.23;;
2656;SDS011;1338;48.176;11.792;2023-03-01T12:28:26;28.20;;;20.53;;
2656;SDS011;1338;48.176;11.792;2023-03-01T12:34:29;26.20;;;20.10;;
2656;SDS011;1338;48.176;11.792;2023-03-01T12:37:29;24.53;;;19.20;;
2656;SDS011;1338;48.176;11.792;2023-03-01T12:43:16;20.27;;;17.80;;
2656;SDS011;1338;48.176;11.792;2023-03-01T12:46:00;23.27;;;17.90;;
2656;SDS011;1338;48.176;11.792;2023-03-01T12:48:40;25.17;;;18.33;;
2656;SDS011;1338;48.176;11.792;2023-03-01T12:51:19;28.80;;;21.83;;
2656;SDS011;1338;48.176;11.792;2023-03-01T12:53:51;25.20;;;19.50;;
2656;SDS011;1338;48.176;11.792;2023-03-01T12:56:23;27.27;;;19.50;;
2656;SDS011;1338;48.176;11.792;2023-03-01T12:58:56;26.13;;;19.80;;
2656;SDS011;1338;48.176;11.792;2023-03-01T13:01:34;27.00;;;22.00;;
2656;SDS011;1338;48.176;11.792;2023-03-01T13:04:13;27.97;;;21.37;;
2656;SDS011;1338;48.176;11.792;2023-03-01T13:06:53;29.27;;;19.73;;
2656;SDS011;1338;48.176;11.792;2023-03-01T13:09:29;23.17;;;17.60;;
2656;SDS011;1338;48.176;11.792;2023-03-01T13:12:03;25.10;;;18.83;;
2656;SDS011;1338;48.176;11.792;2023-03-01T13:15:00;26.77;;;20.43;;
2656;SDS011;1338;48.176;11.792;2023-03-01T13:17:31;24.23;;;20.27;;
2656;SDS011;1338;48.176;11.792;2023-03-01T13:20:01;23.67;;;17.90;;
2656;SDS011;1338;48.176;11.792;2023-03-01T13:22:31;22.20;;;17.13;;
2656;SDS011;1338;48.176;11.792;2023-03-01T13:25:12;25.93;;;19.27;;
2656;SDS011;1338;48.176;11.792;2023-03-01T13:27:44;26.80;;;20.90;;
2656;SDS011;1338;48.176;11.792;2023-03-01T13:36:08;24.13;;;19.00;;
2656;SDS011;1338;48.176;11.792;2023-03-01T13:38:44;27.00;;;19.70;;
2656;SDS011;1338;48.176;11.792;2023-03-01T13:41:14;25.47;;;19.70;;
2656;SDS011;1338;48.176;11.792;2023-03-01T13:43:44;28.03;;;19.87;;
2656;SDS011;1338;48.176;11.792;2023-03-01T13:46:16;25.17;;;20.37;;
2656;SDS011;1338;48.176;11.792;2023-03-01T13:48:51;26.60;;;19.60;;
2656;SDS011;1338;48.176;11.792;2023-03-01T13:51:23;24.73;;;18.60;;
2656;SDS011;1338;48.176;11.792;2023-03-01T13:53:54;22.83;;;16.33;;
2656;SDS011;1338;48.176;11.792;2023-03-01T13:56:27;22.60;;;17.70;;
2656;SDS011;1338;48.176;11.792;2023-03-01T13:59:02;24.80;;;18.70;;
2656;SDS011;1338;48.176;11.792;2023-03-01T14:01:35;22.90;;;18.23;;
2656;SDS011;1338;48.176;11.792;2023-03-01T14:04:17;23.80;;;16.77;;
2656;SDS011;1338;48.176;11.792;2023-03-01T14:06:48;22.53;;;17.67;;
2656;SDS011;1338;48.176;11.792;2023-03-01T14:09:17;25.50;;;19.80;;
2656;SDS011;1338;48.176;11.792;2023-03-01T14:11:59;23.40;;;18.70;;
2656;SDS011;1338;48.176;11.792;2023-03-01T14:14:45;20.13;;;16.00;;
2656;SDS011;1338;48.176;11.792;2023-03-01T14:20:22;21.93;;;16.53;;
2656;SDS011;1338;48.176;11.792;2023-03-01T14:22:52;24.80;;;16.77;;
2656;SDS011;1338;48.176;11.792;2023-03-01T14:25:23;23.40;;;17.83;;
2656;SDS011;1338;48.176;11.792;2023-03-01T14:27:55;18.97;;;16.67;;
2656;SDS011;1338;48.176;11.792;2023-03-01T14:30:26;20.80;;;15.37;;
2656;SDS011;1338;48.176;11.792;2023-03-01T14:32:58;23.23;;;19.80;;
2656;SDS011;1338;48.176;11.792;2023-03-01T14:35:30;20.40;;;16.00;;
2656;SDS011;1338;48.176;11.792;2023-03-01T14:38:00;21.00;;;16.63;;
2656;SDS011;1338;48.176;11.792;2023-03-01T14:40:29;21.43;;;16.23;;
2656;SDS011;1338;48.176;11.792;2023-03-01T14:42:59;19.77;;;16.13;;
2656;SDS011;1338;48.176;11.792;2023-03-01T14:45:29;23.90;;;19.33;;
2656;SDS011;1338;48.176;11.792;2023-03-01T14:47:58;22.67;;;18.40;;
2656;SDS011;1338;48.176;11.792;2023-03-01T14:50:34;19.70;;;15.03;;
2656;SDS011;1338;48.176;11.792;2023-03-01T14:53:04;18.13;;;15.20;;
2656;SDS011;1338;48.176;11.792;2023-03-01T14:55:35;21.07;;;16.80;;
2656;SDS011;1338;48.176;11.792;2023-03-01T14:58:09;22.77;;;16.10;;
2656;SDS011;1338;48.176;11.792;2023-03-01T15:00:43;22.00;;;15.07;;
2656;SDS011;1338;48.176;11.792;2023-03-01T15:03:18;23.03;;;16.30;;
2656;SDS011;1338;48.176;11.792;2023-03-01T15:05:56;22.50;;;17.27;;
2656;SDS011;1338;48.176;11.792;2023-03-01T15:08:25;19.13;;;15.03;;
2656;SDS011;1338;48.176;11.792;2023-03-01T15:11:03;18.97;;;15.67;;
2656;SDS011;1338;48.176;11.792;2023-03-01T15:13:34;19.77;;;16.17;;
2656;SDS011;1338;48.176;11.792;2023-03-01T15:16:07;20.70;;;16.87;;
2656;SDS011;1338;48.176;11.792;2023-03-01T15:18:42;20.90;;;15.53;;
2656;SDS011;1338;48.176;11.792;2023-03-01T15:21:18;19.30;;;16.83;;